地図

経路データ

SID SEASON NUMBER BASIN SUBBASIN NAME ISO_TIME NATURE LAT LON WMO_WIND WMO_PRES WMO_AGENCY TRACK_TYPE DIST2LAND LANDFALL IFLAG USA_AGENCY USA_ATCF_ID USA_LAT USA_LON USA_RECORD USA_STATUS USA_WIND USA_PRES USA_SSHS USA_R34_NE USA_R34_SE USA_R34_SW USA_R34_NW USA_R50_NE USA_R50_SE USA_R50_SW USA_R50_NW USA_R64_NE USA_R64_SE USA_R64_SW USA_R64_NW USA_POCI USA_ROCI USA_RMW USA_EYE TOKYO_LAT TOKYO_LON TOKYO_GRADE TOKYO_WIND TOKYO_PRES TOKYO_R50_DIR TOKYO_R50_LONG TOKYO_R50_SHORT TOKYO_R30_DIR TOKYO_R30_LONG TOKYO_R30_SHORT TOKYO_LAND CMA_LAT CMA_LON CMA_CAT CMA_WIND CMA_PRES HKO_LAT HKO_LON HKO_CAT HKO_WIND HKO_PRES NEWDELHI_LAT NEWDELHI_LON NEWDELHI_GRADE NEWDELHI_WIND NEWDELHI_PRES NEWDELHI_CI NEWDELHI_DP NEWDELHI_POCI REUNION_LAT REUNION_LON REUNION_TYPE REUNION_WIND REUNION_PRES REUNION_TNUM REUNION_CI REUNION_RMW REUNION_R34_NE REUNION_R34_SE REUNION_R34_SW REUNION_R34_NW REUNION_R50_NE REUNION_R50_SE REUNION_R50_SW REUNION_R50_NW REUNION_R64_NE REUNION_R64_SE REUNION_R64_SW REUNION_R64_NW BOM_LAT BOM_LON BOM_TYPE BOM_WIND BOM_PRES BOM_TNUM BOM_CI BOM_RMW BOM_R34_NE BOM_R34_SE BOM_R34_SW BOM_R34_NW BOM_R50_NE BOM_R50_SE BOM_R50_SW BOM_R50_NW BOM_R64_NE BOM_R64_SE BOM_R64_SW BOM_R64_NW BOM_ROCI BOM_POCI BOM_EYE BOM_POS_METHOD BOM_PRES_METHOD NADI_LAT NADI_LON NADI_CAT NADI_WIND NADI_PRES WELLINGTON_LAT WELLINGTON_LON WELLINGTON_WIND WELLINGTON_PRES DS824_LAT DS824_LON DS824_STAGE DS824_WIND DS824_PRES TD9636_LAT TD9636_LON TD9636_STAGE TD9636_WIND TD9636_PRES TD9635_LAT TD9635_LON TD9635_WIND TD9635_PRES TD9635_ROCI NEUMANN_LAT NEUMANN_LON NEUMANN_CLASS NEUMANN_WIND NEUMANN_PRES MLC_LAT MLC_LON MLC_CLASS MLC_WIND MLC_PRES USA_GUST BOM_GUST BOM_GUST_PER REUNION_GUST REUNION_GUST_PER USA_SEAHGT USA_SEARAD_NE USA_SEARAD_SE USA_SEARAD_SW USA_SEARAD_NW STORM_SPEED STORM_DIR
1917297N11093 1917 50 NI BB NOT_NAMED 1917-10-24 00:00:00 TS 11.2000 93.3000 main 528 520 _________O____ -1 11.2000 93.3000 TC 30 3 305
1917297N11093 1917 50 NI BB NOT_NAMED 1917-10-24 03:00:00 TS 11.2934 93.1667 main 520 512 _________PO___ -1 11.3400 93.1000 TC 30 11.2000 93.3000 1 4 308
1917297N11093 1917 50 NI BB NOT_NAMED 1917-10-24 06:00:00 TS 11.4520 92.9758 main 504 497 _________OP___ -1 11.5000 92.9000 TC 30 11.3799 93.0894 1 5 312
1917297N11093 1917 50 NI BB NOT_NAMED 1917-10-24 09:00:00 TS 11.6347 92.7784 main 501 484 _________PP___ -1 11.6925 92.7000 TC 30 11.5577 92.8829 1 5 314
1917297N11093 1917 50 NI BB NOT_NAMED 1917-10-24 12:00:00 TS 11.8159 92.5925 main 488 472 _________OP___ -1 11.9000 92.5000 TC 30 11.7317 92.6850 1 5 315
1917297N11093 1917 50 NI BB NOT_NAMED 1917-10-24 15:00:00 TS 12.0037 92.4000 main 477 467 _________PO___ -1 12.1075 92.3000 TC 30 11.9000 92.5000 1 5 315
1917297N11093 1917 50 NI BB NOT_NAMED 1917-10-24 18:00:00 TS 12.1813 92.2141 main 467 463 _________OP___ -1 12.3000 92.1000 TC 30 12.0626 92.3281 1 5 313
1917297N11093 1917 50 NI BB NOT_NAMED 1917-10-24 21:00:00 TS 12.3348 92.0372 main 469 457 _________PP___ -1 12.4424 91.9224 TC 30 12.2271 92.1520 1 5 310
1917297N11093 1917 50 NI BB NOT_NAMED 1917-10-25 00:00:00 TS 12.5016 91.8250 main 463 454 _________OP___ -1 12.6000 91.7000 TC 30 12.4031 91.9499 1 6 308
1917297N11093 1917 50 NI BB NOT_NAMED 1917-10-25 03:00:00 TS 12.7175 91.5400 main 467 458 _________PO___ -1 12.8350 91.3800 TC 30 12.6000 91.7000 1 8 306
1917297N11093 1917 50 NI BB NOT_NAMED 1917-10-25 06:00:00 TS 12.9643 91.1837 main 465 465 _________OP___ -1 13.1000 91.0000 TC 30 12.8286 91.3673 1 9 304
1917297N11093 1917 50 NI BB NOT_NAMED 1917-10-25 09:00:00 TS 13.2139 90.7938 main 481 481 _________PP___ -1 13.3500 90.6000 TC 30 13.0778 90.9877 1 9 303
1917297N11093 1917 50 NI BB NOT_NAMED 1917-10-25 12:00:00 TS 13.4690 90.3946 main 495 495 _________OP___ -1 13.6000 90.2000 TC 30 13.3380 90.5892 1 9 304
1917297N11093 1917 50 NI BB NOT_NAMED 1917-10-25 15:00:00 TS 13.7250 90.0175 main 519 514 _________PO___ -1 13.8499 89.8349 TC 30 13.6000 90.2000 1 9 306
1917297N11093 1917 50 NI BB NOT_NAMED 1917-10-25 18:00:00 TS 13.9790 89.6742 main 532 532 _________OP___ -1 14.1000 89.5000 TC 30 13.8580 89.8484 1 8 308
1917297N11093 1917 50 NI BB NOT_NAMED 1917-10-25 21:00:00 TS 14.2362 89.3487 main 563 559 _________PP___ -1 14.3575 89.1850 TC 30 14.1149 89.5124 1 8 310
1917297N11093 1917 50 NI BB NOT_NAMED 1917-10-26 00:00:00 TS 14.4821 89.0476 main 582 579 _________OP___ -1 14.6000 88.9000 TC 30 14.3643 89.1953 1 7 310
1917297N11093 1917 50 NI BB NOT_NAMED 1917-10-26 03:00:00 TS 14.7037 88.7712 main 597 597 _________PO___ -1 14.8074 88.6424 TC 30 14.6000 88.9000 1 7 309
1917297N11093 1917 50 NI BB NOT_NAMED 1917-10-26 06:00:00 TS 14.9051 88.5120 main 601 570 _________OP___ -1 15.0000 88.4000 TC 30 14.8101 88.6241 1 6 309
1917297N11093 1917 50 NI BB NOT_NAMED 1917-10-26 09:00:00 TS 15.1036 88.2598 main 570 531 _________PP___ -1 15.2000 88.1500 TC 30 15.0073 88.3696 1 6 309
1917297N11093 1917 50 NI BB NOT_NAMED 1917-10-26 12:00:00 TS 15.3004 88.0152 main 531 501 _________OP___ -1 15.4000 87.9000 TC 30 15.2008 88.1303 1 6 310
1917297N11093 1917 50 NI BB NOT_NAMED 1917-10-26 15:00:00 TS 15.4962 87.7712 main 501 462 _________PO___ -1 15.5925 87.6424 TC 30 15.4000 87.9000 1 6 311
1917297N11093 1917 50 NI BB NOT_NAMED 1917-10-26 18:00:00 TS 15.7150 87.5218 main 462 431 _________OP___ -1 15.8000 87.4000 TC 30 15.6300 87.6436 1 7 315
1917297N11093 1917 50 NI BB NOT_NAMED 1917-10-26 21:00:00 TS 15.9613 87.2876 main 423 392 _________PP___ -1 16.0575 87.1775 TC 30 15.8651 87.3977 1 6 319
1917297N11093 1917 50 NI BB NOT_NAMED 1917-10-27 00:00:00 TS 16.1963 87.0890 main 392 361 _________OP___ -1 16.3000 87.0000 TC 30 16.0926 87.1780 1 5 322
1917297N11093 1917 50 NI BB NOT_NAMED 1917-10-27 03:00:00 TS 16.3825 86.9387 main 361 346 _________PO___ -1 16.4650 86.8774 TC 30 16.3000 87.0000 1 4 325
1917297N11093 1917 50 NI BB NOT_NAMED 1917-10-27 06:00:00 TS 16.5337 86.8408 main 346 330 _________OP___ -1 16.6000 86.8000 TC 30 16.4673 86.8816 1 3 333
1917297N11093 1917 50 NI BB NOT_NAMED 1917-10-27 09:00:00 TS 16.6824 86.7773 main 330 315 _________PP___ -1 16.7500 86.7500 TC 30 16.6148 86.8046 1 3 339
1917297N11093 1917 50 NI BB NOT_NAMED 1917-10-27 12:00:00 TS 16.8274 86.7252 main 315 299 _________OP___ -1 16.9000 86.7000 TC 30 16.7549 86.7504 1 3 338
1917297N11093 1917 50 NI BB NOT_NAMED 1917-10-27 15:00:00 TS 16.9713 86.6500 main 299 284 _________PO___ -1 17.0425 86.6000 TC 30 16.9000 86.7000 1 4 333
1917297N11093 1917 50 NI BB NOT_NAMED 1917-10-27 18:00:00 TS 17.1420 86.5564 main 284 261 _________OP___ -1 17.2000 86.5000 TC 30 17.0841 86.6129 1 4 336
1917297N11093 1917 50 NI BB NOT_NAMED 1917-10-27 21:00:00 TS 17.3438 86.4813 main 261 239 _________PP___ -1 17.4150 86.4350 TC 30 17.2725 86.5276 1 4 342
1917297N11093 1917 50 NI BB NOT_NAMED 1917-10-28 00:00:00 TS 17.5249 86.4268 main 239 232 _________OP___ -1 17.6000 86.4000 TC 30 17.4497 86.4535 1 3 345
1917297N11093 1917 50 NI BB NOT_NAMED 1917-10-28 03:00:00 TS 17.6325 86.3962 main 232 226 _________PO___ -1 17.6650 86.3925 TC 30 17.6000 86.4000 1 2 351
1917297N11093 1917 50 NI BB NOT_NAMED 1917-10-28 06:00:00 TS 17.7039 86.3912 main 226 220 _________OP___ -1 17.7000 86.4000 TC 30 17.7078 86.3824 1 2 351
1917297N11093 1917 50 NI BB NOT_NAMED 1917-10-28 09:00:00 TS 17.7937 86.3924 main 220 215 _________PP___ -1 17.8000 86.4000 TC 30 17.7875 86.3849 1 2 9
1917297N11093 1917 50 NI BB NOT_NAMED 1917-10-28 12:00:00 TS 17.8742 86.3975 main 215 215 _________OP___ -1 17.9000 86.4000 TC 30 17.8484 86.3949 1 1 10
1917297N11093 1917 50 NI BB NOT_NAMED 1917-10-28 15:00:00 TS 17.9287 86.4037 main 215 207 _________PO___ -1 17.9575 86.4075 TC 30 17.9000 86.4000 1 1 0
1917297N11093 1917 50 NI BB NOT_NAMED 1917-10-28 18:00:00 TS 17.9562 86.3810 main 207 200 _________OP___ -1 18.0000 86.4000 TC 30 17.9125 86.3620 1 1 297
1917297N11093 1917 50 NI BB NOT_NAMED 1917-10-28 21:00:00 TS 17.9650 86.3314 main 200 200 _________PP___ -1 18.0050 86.3425 TC 30 17.9250 86.3203 1 1 317
1917297N11093 1917 50 NI BB NOT_NAMED 1917-10-29 00:00:00 TS 18.0375 86.2967 main 200 183 _________OP___ -1 18.1000 86.3000 TC 30 17.9750 86.2934 1 3 0
1917297N11093 1917 50 NI BB NOT_NAMED 1917-10-29 03:00:00 TS 18.2562 86.3100 main 173 148 _________PO___ -1 18.4125 86.3200 TC 30 18.1000 86.3000 1 6 7
1917297N11093 1917 50 NI BB NOT_NAMED 1917-10-29 06:00:00 TS 18.5811 86.3719 main 148 119 _________OP___ -1 18.8000 86.4000 TC 30 18.3621 86.3437 1 7 14
1917297N11093 1917 50 NI BB NOT_NAMED 1917-10-29 09:00:00 TS 18.9062 86.4762 main 119 91 _________PP___ -1 19.1150 86.5275 TC 30 18.6974 86.4250 1 7 20
1917297N11093 1917 50 NI BB NOT_NAMED 1917-10-29 12:00:00 TS 19.2295 86.6219 main 91 64 _________OP___ -1 19.4000 86.7000 TC 30 19.0590 86.5437 1 7 26
1917297N11093 1917 50 NI BB NOT_NAMED 1917-10-29 15:00:00 TS 19.5325 86.7925 main 69 61 _________PO___ -1 19.6650 86.8850 TC 30 19.4000 86.7000 1 6 33
1917297N11093 1917 50 NI BB NOT_NAMED 1917-10-29 18:00:00 TS 19.7647 86.9907 main 64 61 _________OP___ -1 19.9000 87.1000 TC 30 19.6294 86.8814 1 6 43
1917297N11093 1917 50 NI BB NOT_NAMED 1917-10-29 21:00:00 TS 19.9600 87.2167 main 62 62 _________PP___ -1 20.0850 87.3352 TC 30 19.8350 87.0982 1 6 48
1917297N11093 1917 50 NI BB NOT_NAMED 1917-10-30 00:00:00 TS 20.1740 87.4705 main 76 76 _________OP___ -1 20.3000 87.6000 TC 30 20.0481 87.3409 1 7 45
1917297N11093 1917 50 NI BB NOT_NAMED 1917-10-30 03:00:00 TS 20.4600 87.7500 main 86 76 _________PO___ -1 20.6200 87.9000 TC 30 20.3000 87.6000 1 8 40
1917297N11093 1917 50 NI BB NOT_NAMED 1917-10-30 06:00:00 TS 20.8139 88.0343 main 91 44 _________OP___ -1 21.0000 88.2000 TC 30 20.6279 87.8686 1 9 35
1917297N11093 1917 50 NI BB NOT_NAMED 1917-10-30 09:00:00 TS 21.1950 88.3037 main 44 0 _________PP___ -1 21.3924 88.4576 TC 30 20.9976 88.1498 1 9 32
1917297N11093 1917 50 NI BB NOT_NAMED 1917-10-30 12:00:00 TS 21.5968 88.5656 main 10 0 _________OP___ -1 21.8000 88.7000 TC 30 21.3935 88.4312 1 9 31
1917297N11093 1917 50 NI BB NOT_NAMED 1917-10-30 15:00:00 TS 22.0000 88.8288 main 0 0 _________PO___ -1 22.2000 88.9576 TC 30 21.8000 88.7000 1 9 30
1917297N11093 1917 50 NI BB NOT_NAMED 1917-10-30 18:00:00 TS 22.3739 89.0552 main 0 0 _________OP___ -1 22.6000 89.2000 TC 30 22.2043 88.9466 1 9 28
1917297N11093 1917 50 NI BB NOT_NAMED 1917-10-30 21:00:00 TS 22.7630 89.2686 main 0 0 _________PP___ -1 23.0000 89.4098 TC 30 22.6050 89.1744 1 9 26
1917297N11093 1917 50 NI BB NOT_NAMED 1917-10-31 00:00:00 TS 23.1355 89.4600 main 0 0 _________OP___ -1 23.4000 89.6000 TC 30 23.0032 89.3900 1 7 25
1917297N11093 1917 50 NI BB NOT_NAMED 1917-10-31 03:00:00 NR 23.4000 89.6000 main 0 __________O___ -1 TC 23.4000 89.6000 1 6 27

IBTrACS Databaseについて

本データベースは、米国NOAAが公開する1842年以降の世界の熱帯低気圧のベストトラックデータアーカイブInternational Best Track Archive for Climate Stewardship (IBTrACS)を、ウェブで閲覧しやすい形式に変換したものです。

最終更新日:2021-11-26